Time;durP1;ratioP1;P1;durP2;ratioP2;P2;SDS_P1;SDS_P2;PMS_P1;PMS_P2;Temp;Humidity;BMP_temperature;BMP_pressure;BME280_temperature;BME280_humidity;BME280_pressure;Samples;Min_cycle;Max_cycle;Signal;HPM_P1;HPM_P2
2022/06/27 00:02:06;;;;;;;;;;;24.60;52.90;;;;;;5105618;27;19939;-57
2022/06/27 00:04:33;;;;;;;;;;;24.60;53.00;;;;;;5106097;27;19931;-56
2022/06/27 00:07:00;;;;;;;;;;;24.60;52.90;;;;;;5122955;27;20299;-58
2022/06/27 00:09:27;;;;;;;;;;;24.60;52.90;;;;;;5120555;27;19931;-56
2022/06/27 00:11:53;;;;;;;;;;;24.60;52.90;;;;;;5120845;27;20018;-57
2022/06/27 00:14:20;;;;;;;;;;;24.60;52.90;;;;;;5108972;27;19946;-58
2022/06/27 00:16:47;;;;;;;;;;;24.60;52.90;;;;;;5107034;27;19919;-57
2022/06/27 00:19:15;;;;;;;;;;;24.60;52.90;;;;;;5101531;27;20391;-58
2022/06/27 00:21:42;;;;;;;;;;;24.60;52.80;;;;;;5106524;28;19939;-57
2022/06/27 00:24:08;;;;;;;;;;;24.60;52.80;;;;;;5125733;27;19932;-58
2022/06/27 00:26:35;;;;;;;;;;;24.60;52.90;;;;;;5121235;27;19920;-58
2022/06/27 00:29:02;;;;;;;;;;;24.60;52.80;;;;;;5121690;27;19923;-57
2022/06/27 00:31:29;;;;;;;;;;;24.60;52.80;;;;;;5103936;28;19966;-58
2022/06/27 00:33:55;;;;;;;;;;;24.60;52.80;;;;;;5101191;28;19919;-59
2022/06/27 00:36:24;;;;;;;;;;;24.60;52.80;;;;;;5120807;28;20027;-57
2022/06/27 00:38:51;;;;;;;;;;;24.60;52.90;;;;;;5101896;28;19923;-57
2022/06/27 00:41:17;;;;;;;;;;;24.60;52.90;;;;;;5103748;28;20410;-58
2022/06/27 00:43:44;;;;;;;;;;;24.60;52.90;;;;;;5120909;28;19927;-57
2022/06/27 00:46:11;;;;;;;;;;;24.60;53.50;;;;;;5107749;28;20017;-58
2022/06/27 00:48:37;;;;;;;;;;;24.60;52.90;;;;;;5104015;28;20263;-57
2022/06/27 00:51:04;;;;;;;;;;;24.60;52.90;;;;;;5117830;28;19928;-57
2022/06/27 00:53:32;;;;;;;;;;;24.60;52.90;;;;;;5121977;28;19919;-55
2022/06/27 00:55:59;;;;;;;;;;;24.60;52.90;;;;;;5106563;28;19951;-58
2022/06/27 00:58:26;;;;;;;;;;;24.60;52.90;;;;;;5108707;28;20312;-58
2022/06/27 01:00:52;;;;;;;;;;;24.60;52.90;;;;;;5105032;28;19972;-58
2022/06/27 01:03:19;;;;;;;;;;;24.60;52.90;;;;;;5123243;28;20264;-58
2022/06/27 01:05:52;;;;;;;;;;;24.60;52.90;;;;;;5101656;28;19923;-56
2022/06/27 01:08:18;;;;;;;;;;;24.60;52.90;;;;;;5119213;28;19920;-57
2022/06/27 01:10:47;;;;;;;;;;;24.60;52.90;;;;;;5119182;28;19934;-57
2022/06/27 01:13:14;;;;;;;;;;;24.60;52.90;;;;;;5107059;28;19919;-58
2022/06/27 01:15:40;;;;;;;;;;;24.60;52.90;;;;;;5107523;28;19931;-58
2022/06/27 01:18:07;;;;;;;;;;;24.60;52.90;;;;;;5108935;28;20283;-58
2022/06/27 01:20:34;;;;;;;;;;;24.60;53.00;;;;;;5107745;27;20380;-58
2022/06/27 01:23:02;;;;;;;;;;;24.60;52.90;;;;;;5103979;27;20264;-56
2022/06/27 01:25:29;;;;;;;;;;;24.60;53.00;;;;;;5110848;27;20167;-55
2022/06/27 01:27:56;;;;;;;;;;;24.60;53.00;;;;;;5112803;27;20026;-56
2022/06/27 01:30:22;;;;;;;;;;;24.60;53.00;;;;;;5108909;27;20352;-56
2022/06/27 01:32:50;;;;;;;;;;;24.60;53.00;;;;;;5106219;27;19923;-57
2022/06/27 01:35:16;;;;;;;;;;;24.60;53.00;;;;;;5128695;27;19942;-58
2022/06/27 01:37:43;;;;;;;;;;;24.60;53.00;;;;;;5123598;27;20015;-57
2022/06/27 01:40:11;;;;;;;;;;;24.60;53.00;;;;;;5105917;27;19928;-56
2022/06/27 01:42:38;;;;;;;;;;;24.60;52.90;;;;;;5108484;27;20254;-57
2022/06/27 01:45:05;;;;;;;;;;;24.60;52.90;;;;;;5125588;27;19919;-58
2022/06/27 01:47:32;;;;;;;;;;;24.60;52.90;;;;;;5125147;27;19977;-58
2022/06/27 01:49:58;;;;;;;;;;;24.60;52.90;;;;;;5128069;27;20395;-59
2022/06/27 01:52:25;;;;;;;;;;;24.60;52.90;;;;;;5106979;27;19996;-57
2022/06/27 01:54:52;;;;;;;;;;;24.60;52.80;;;;;;5108935;27;19954;-56
2022/06/27 01:57:20;;;;;;;;;;;24.60;52.80;;;;;;5111667;27;19923;-58
2022/06/27 01:59:47;;;;;;;;;;;24.60;52.90;;;;;;5113302;27;19982;-58
2022/06/27 02:02:13;;;;;;;;;;;24.50;52.60;;;;;;5110915;27;19933;-55
2022/06/27 02:04:41;;;;;;;;;;;24.50;52.50;;;;;;5123049;27;20310;-57
2022/06/27 02:07:07;;;;;;;;;;;24.50;52.50;;;;;;5109061;27;19923;-57
2022/06/27 02:09:34;;;;;;;;;;;24.50;52.40;;;;;;5102872;27;19935;-56
2022/06/27 02:12:18;;;;;;;;;;;24.50;52.40;;;;;;5106045;27;20018;-57
2022/06/27 02:14:46;;;;;;;;;;;24.50;52.40;;;;;;5108965;27;20018;-57
2022/06/27 02:17:13;;;;;;;;;;;24.40;52.40;;;;;;5122952;27;19927;-58
2022/06/27 02:19:40;;;;;;;;;;;24.40;52.50;;;;;;5107379;27;19981;-57
2022/06/27 02:22:07;;;;;;;;;;;24.40;52.50;;;;;;5125398;27;19945;-58
2022/06/27 02:24:34;;;;;;;;;;;24.40;52.60;;;;;;5129301;27;19923;-57
2022/06/27 02:27:00;;;;;;;;;;;24.40;52.70;;;;;;5111582;27;20207;-58
2022/06/27 02:29:27;;;;;;;;;;;24.40;52.80;;;;;;5124998;27;19920;-57
2022/06/27 02:31:55;;;;;;;;;;;24.40;52.90;;;;;;5103112;27;19920;-55
2022/06/27 02:34:22;;;;;;;;;;;24.40;53.00;;;;;;5116631;27;19928;-57
2022/06/27 02:36:49;;;;;;;;;;;24.40;53.00;;;;;;5108476;28;19919;-58
2022/06/27 02:39:17;;;;;;;;;;;24.30;53.00;;;;;;5106711;27;19920;-57
2022/06/27 02:41:44;;;;;;;;;;;24.30;53.10;;;;;;5129046;27;20015;-57
2022/06/27 02:44:11;;;;;;;;;;;24.30;53.20;;;;;;5127236;27;19927;-57
2022/06/27 02:46:38;;;;;;;;;;;24.30;53.20;;;;;;5108650;27;20109;-56
2022/06/27 02:49:06;;;;;;;;;;;24.30;53.20;;;;;;5104081;27;19936;-57
2022/06/27 02:51:34;;;;;;;;;;;24.30;53.20;;;;;;5109707;27;19971;-57
2022/06/27 02:54:02;;;;;;;;;;;24.30;53.20;;;;;;5126382;27;19927;-58
2022/06/27 02:56:29;;;;;;;;;;;24.30;53.20;;;;;;5107916;27;19991;-56
2022/06/27 02:58:59;;;;;;;;;;;24.30;53.20;;;;;;5105674;27;20014;-54
2022/06/27 03:01:26;;;;;;;;;;;24.30;53.20;;;;;;5105782;27;19923;-56
2022/06/27 03:03:52;;;;;;;;;;;24.20;53.10;;;;;;5105811;27;20280;-57
2022/06/27 03:06:20;;;;;;;;;;;24.20;53.20;;;;;;5102306;27;19920;-57
2022/06/27 03:08:47;;;;;;;;;;;24.20;53.20;;;;;;5122328;27;19941;-57
2022/06/27 03:11:15;;;;;;;;;;;24.20;53.20;;;;;;5112202;27;19987;-57
2022/06/27 03:13:41;;;;;;;;;;;24.20;53.30;;;;;;5120485;27;19966;-57
2022/06/27 03:16:08;;;;;;;;;;;24.20;53.40;;;;;;5119919;27;20014;-55
2022/06/27 03:18:35;;;;;;;;;;;24.10;53.30;;;;;;5122276;27;20399;-57
2022/06/27 03:21:01;;;;;;;;;;;24.10;53.30;;;;;;5100518;27;19923;-57
2022/06/27 03:23:30;;;;;;;;;;;24.10;53.30;;;;;;5106957;28;19943;-58
2022/06/27 03:25:57;;;;;;;;;;;24.10;53.30;;;;;;5120125;27;19930;-58
2022/06/27 03:28:24;;;;;;;;;;;24.10;53.30;;;;;;5109972;27;20329;-58
2022/06/27 03:30:50;;;;;;;;;;;24.20;53.30;;;;;;5108580;27;19931;-57
2022/06/27 03:33:17;;;;;;;;;;;24.10;53.20;;;;;;5105417;27;19919;-56
2022/06/27 03:35:44;;;;;;;;;;;24.10;53.20;;;;;;5102942;27;20014;-57
2022/06/27 03:38:12;;;;;;;;;;;24.10;53.20;;;;;;5119654;27;20288;-57
2022/06/27 03:40:40;;;;;;;;;;;24.10;53.30;;;;;;5102840;27;19926;-56
2022/06/27 03:43:07;;;;;;;;;;;24.10;53.30;;;;;;5116304;27;19932;-57
2022/06/27 03:45:33;;;;;;;;;;;24.20;53.40;;;;;;5124504;27;20014;-57
2022/06/27 03:48:01;;;;;;;;;;;24.10;53.40;;;;;;5107098;27;19919;-57
2022/06/27 03:50:26;;;;;;;;;;;24.10;53.50;;;;;;5106491;27;19984;-57
2022/06/27 03:52:54;;;;;;;;;;;24.10;53.40;;;;;;5121609;27;19920;-57
2022/06/27 03:55:20;;;;;;;;;;;24.20;53.60;;;;;;5123454;27;19920;-57
2022/06/27 03:57:49;;;;;;;;;;;24.10;53.50;;;;;;5123803;27;20307;-58
2022/06/27 04:00:16;;;;;;;;;;;24.10;53.50;;;;;;5108292;27;19923;-57
2022/06/27 04:02:43;;;;;;;;;;;24.10;53.50;;;;;;5108261;28;19976;-57
2022/06/27 04:05:10;;;;;;;;;;;24.10;53.60;;;;;;5106537;27;19954;-55
2022/06/27 04:07:38;;;;;;;;;;;24.20;53.70;;;;;;5122329;27;19971;-57
2022/06/27 04:10:05;;;;;;;;;;;24.10;53.60;;;;;;5121077;27;19946;-57
2022/06/27 04:12:32;;;;;;;;;;;24.10;53.60;;;;;;5108610;27;19969;-56
2022/06/27 04:15:00;;;;;;;;;;;24.10;53.60;;;;;;5108073;28;19964;-57
2022/06/27 04:17:27;;;;;;;;;;;24.20;53.80;;;;;;5107283;27;19984;-56
2022/06/27 04:19:54;;;;;;;;;;;24.10;53.60;;;;;;5122630;27;19971;-58
2022/06/27 04:22:21;;;;;;;;;;;24.20;53.70;;;;;;5105110;27;20312;-57
2022/06/27 04:24:48;;;;;;;;;;;24.20;53.80;;;;;;5106411;27;20344;-57
2022/06/27 04:27:17;;;;;;;;;;;24.20;53.70;;;;;;5101423;27;19933;-57
2022/06/27 04:29:44;;;;;;;;;;;24.20;53.70;;;;;;5122356;27;19920;-58
2022/06/27 04:32:12;;;;;;;;;;;24.20;53.80;;;;;;5103360;28;20329;-57
2022/06/27 04:34:39;;;;;;;;;;;24.20;53.80;;;;;;5110380;28;20368;-58
2022/06/27 04:37:07;;;;;;;;;;;24.20;53.90;;;;;;5104412;28;20026;-57
2022/06/27 04:39:34;;;;;;;;;;;24.20;53.90;;;;;;5110548;28;20318;-56
2022/06/27 04:42:00;;;;;;;;;;;24.20;54.10;;;;;;5108626;28;19923;-57
2022/06/27 04:44:27;;;;;;;;;;;24.20;54.10;;;;;;5111478;28;19919;-56
2022/06/27 04:46:54;;;;;;;;;;;24.20;54.10;;;;;;5108186;28;19992;-57
2022/06/27 04:49:24;;;;;;;;;;;24.20;54.20;;;;;;5104695;28;20257;-56
2022/06/27 04:51:51;;;;;;;;;;;24.20;54.20;;;;;;5104127;28;19934;-59
2022/06/27 04:54:18;;;;;;;;;;;24.20;54.20;;;;;;5097606;28;19963;-57
2022/06/27 04:56:45;;;;;;;;;;;24.20;54.30;;;;;;5101730;27;19932;-58
2022/06/27 04:59:12;;;;;;;;;;;24.20;54.40;;;;;;5112469;27;19919;-57
2022/06/27 05:01:39;;;;;;;;;;;24.20;54.40;;;;;;5125777;27;19930;-56
2022/06/27 05:04:06;;;;;;;;;;;24.30;54.50;;;;;;5112240;27;19971;-57
2022/06/27 05:06:34;;;;;;;;;;;24.20;54.50;;;;;;5111951;27;19923;-57
2022/06/27 05:09:00;;;;;;;;;;;24.20;54.40;;;;;;5111327;27;19969;-57
2022/06/27 05:11:27;;;;;;;;;;;24.20;54.50;;;;;;5111163;27;19919;-57
2022/06/27 05:13:54;;;;;;;;;;;24.30;54.60;;;;;;5111138;27;20355;-57
2022/06/27 05:16:20;;;;;;;;;;;24.20;54.50;;;;;;5125324;27;20007;-58
2022/06/27 05:18:47;;;;;;;;;;;24.20;54.50;;;;;;5116068;27;19920;-57
2022/06/27 05:21:14;;;;;;;;;;;24.20;54.50;;;;;;5106329;27;20377;-58
2022/06/27 05:23:42;;;;;;;;;;;24.20;54.50;;;;;;5121501;27;20027;-58
2022/06/27 05:26:09;;;;;;;;;;;24.30;54.50;;;;;;5123720;27;20317;-57
2022/06/27 05:28:36;;;;;;;;;;;24.30;54.60;;;;;;5126050;27;19920;-58
2022/06/27 05:31:02;;;;;;;;;;;24.20;54.50;;;;;;5103334;27;19923;-57
2022/06/27 05:33:29;;;;;;;;;;;24.30;54.60;;;;;;5104266;27;20457;-58
2022/06/27 05:35:56;;;;;;;;;;;24.30;54.60;;;;;;5122173;27;19927;-57
2022/06/27 05:38:23;;;;;;;;;;;24.30;54.60;;;;;;5125459;27;20415;-58
2022/06/27 05:40:51;;;;;;;;;;;24.30;54.60;;;;;;5127829;27;20353;-57
2022/06/27 05:43:19;;;;;;;;;;;24.30;54.60;;;;;;5121133;27;19931;-58
2022/06/27 05:45:46;;;;;;;;;;;24.30;54.70;;;;;;5114535;27;19931;-57
2022/06/27 05:48:12;;;;;;;;;;;24.30;54.70;;;;;;5111625;27;20339;-55
2022/06/27 05:50:39;;;;;;;;;;;24.30;54.70;;;;;;5111448;27;19923;-58
2022/06/27 05:53:06;;;;;;;;;;;24.30;54.80;;;;;;5123786;27;19954;-58
2022/06/27 05:55:33;;;;;;;;;;;24.30;54.80;;;;;;5103760;27;19940;-58
2022/06/27 05:58:02;;;;;;;;;;;24.30;54.90;;;;;;5126915;27;20025;-57
2022/06/27 06:00:29;;;;;;;;;;;24.30;54.90;;;;;;5111497;27;20010;-58
2022/06/27 06:02:57;;;;;;;;;;;24.30;54.90;;;;;;5120230;27;20330;-57
2022/06/27 06:05:25;;;;;;;;;;;24.30;54.90;;;;;;5110290;27;20391;-56
2022/06/27 06:07:51;;;;;;;;;;;24.30;54.90;;;;;;5124005;27;20303;-58
2022/06/27 06:10:19;;;;;;;;;;;24.30;54.90;;;;;;5126849;27;19919;-58
2022/06/27 06:12:46;;;;;;;;;;;24.30;54.90;;;;;;5124402;27;19919;-57
2022/06/27 06:15:15;;;;;;;;;;;24.30;55.00;;;;;;5111597;27;20329;-57
2022/06/27 06:17:42;;;;;;;;;;;24.30;55.00;;;;;;5109552;27;19928;-58
2022/06/27 06:20:10;;;;;;;;;;;24.30;55.00;;;;;;5113981;27;19947;-58
2022/06/27 06:22:36;;;;;;;;;;;24.30;55.00;;;;;;5104984;27;19924;-58
2022/06/27 06:25:03;;;;;;;;;;;24.30;55.00;;;;;;5109883;27;19930;-57
2022/06/27 06:27:30;;;;;;;;;;;24.30;55.00;;;;;;5120604;27;19928;-59
2022/06/27 06:29:58;;;;;;;;;;;24.30;55.00;;;;;;5109175;27;19942;-58
2022/06/27 06:32:28;;;;;;;;;;;24.30;55.10;;;;;;5098475;27;20489;-59
2022/06/27 06:34:54;;;;;;;;;;;24.30;55.10;;;;;;5114053;27;19919;-59
2022/06/27 06:37:22;;;;;;;;;;;24.40;55.10;;;;;;5098398;27;20272;-57
2022/06/27 06:39:48;;;;;;;;;;;24.40;55.10;;;;;;5094018;28;20268;-55
2022/06/27 06:42:16;;;;;;;;;;;24.40;55.20;;;;;;5129627;27;19923;-58
2022/06/27 06:44:43;;;;;;;;;;;24.40;55.30;;;;;;5118871;27;19930;-57
2022/06/27 06:47:10;;;;;;;;;;;24.40;55.30;;;;;;5127782;27;19931;-57
2022/06/27 06:49:39;;;;;;;;;;;24.40;55.20;;;;;;5131900;27;19925;-58
2022/06/27 06:52:06;;;;;;;;;;;24.40;55.30;;;;;;5099370;27;19946;-56
2022/06/27 06:54:33;;;;;;;;;;;24.40;55.40;;;;;;5117615;27;19967;-58
2022/06/27 06:56:59;;;;;;;;;;;24.40;55.30;;;;;;5100493;27;20276;-59
2022/06/27 06:59:26;;;;;;;;;;;24.40;55.40;;;;;;5115380;27;19930;-58
2022/06/27 07:01:53;;;;;;;;;;;24.40;55.40;;;;;;5116931;27;19925;-59
2022/06/27 07:04:20;;;;;;;;;;;24.40;55.40;;;;;;5096751;27;19938;-59
2022/06/27 07:06:48;;;;;;;;;;;24.40;55.50;;;;;;5101741;27;19940;-59
2022/06/27 07:09:15;;;;;;;;;;;24.40;55.40;;;;;;5113126;27;19966;-58
2022/06/27 07:11:42;;;;;;;;;;;24.40;55.50;;;;;;5108886;27;19927;-59
2022/06/27 07:14:09;;;;;;;;;;;24.40;55.40;;;;;;5105609;27;19919;-60
2022/06/27 07:16:37;;;;;;;;;;;24.40;55.50;;;;;;5123147;27;19926;-59
2022/06/27 07:19:06;;;;;;;;;;;24.40;55.50;;;;;;5111073;27;20312;-59
2022/06/27 07:21:34;;;;;;;;;;;24.40;55.60;;;;;;5114522;27;19920;-58
2022/06/27 07:24:03;;;;;;;;;;;24.40;55.60;;;;;;5096889;27;20439;-59
2022/06/27 07:26:31;;;;;;;;;;;24.40;55.70;;;;;;5125128;27;19973;-60
2022/06/27 07:29:00;;;;;;;;;;;24.40;55.60;;;;;;5118903;27;19920;-60
2022/06/27 07:31:26;;;;;;;;;;;24.50;55.90;;;;;;5105446;27;19939;-57
2022/06/27 07:33:54;;;;;;;;;;;24.50;55.90;;;;;;5128999;27;19966;-58
2022/06/27 07:36:22;;;;;;;;;;;24.50;55.90;;;;;;5101937;27;19965;-58
2022/06/27 07:38:49;;;;;;;;;;;24.50;56.00;;;;;;5118916;27;20005;-59
2022/06/27 07:41:19;;;;;;;;;;;24.50;56.00;;;;;;5121267;27;19919;-60
2022/06/27 07:43:46;;;;;;;;;;;24.50;56.00;;;;;;5122305;27;19959;-60
2022/06/27 07:46:15;;;;;;;;;;;24.50;56.10;;;;;;5108942;28;20328;-60
2022/06/27 07:48:42;;;;;;;;;;;24.50;56.10;;;;;;5108579;27;19926;-59
2022/06/27 07:51:09;;;;;;;;;;;24.50;56.10;;;;;;5124814;27;19920;-59
2022/06/27 07:53:37;;;;;;;;;;;24.50;56.20;;;;;;5104668;27;19955;-60
2022/06/27 07:56:06;;;;;;;;;;;24.50;56.20;;;;;;5099853;27;19945;-58
2022/06/27 07:58:35;;;;;;;;;;;24.50;56.20;;;;;;5101114;27;19920;-60
2022/06/27 08:01:02;;;;;;;;;;;24.50;56.20;;;;;;5102640;27;19919;-59
2022/06/27 08:03:40;;;;;;;;;;;24.50;56.20;;;;;;5105563;27;20283;-59
2022/06/27 08:06:08;;;;;;;;;;;24.50;56.10;;;;;;5098842;28;19924;-58
2022/06/27 08:08:36;;;;;;;;;;;24.50;56.10;;;;;;5120763;27;20010;-58
2022/06/27 08:11:03;;;;;;;;;;;24.50;56.00;;;;;;5103250;28;19997;-59
2022/06/27 08:13:31;;;;;;;;;;;24.50;56.00;;;;;;5104992;27;20461;-59
2022/06/27 08:15:59;;;;;;;;;;;24.50;55.90;;;;;;5110156;27;19932;-58
2022/06/27 08:18:26;;;;;;;;;;;24.40;55.70;;;;;;5122939;27;19938;-58
2022/06/27 08:20:53;;;;;;;;;;;24.50;55.70;;;;;;5122222;27;20267;-58
2022/06/27 08:23:20;;;;;;;;;;;24.40;55.60;;;;;;5127436;27;19919;-59
2022/06/27 08:25:47;;;;;;;;;;;24.40;55.60;;;;;;5102021;27;19958;-57
2022/06/27 08:28:16;;;;;;;;;;;24.50;55.70;;;;;;5107309;28;20010;-58
2022/06/27 08:30:42;;;;;;;;;;;24.40;55.50;;;;;;5103322;28;19928;-57
2022/06/27 08:33:11;;;;;;;;;;;24.40;55.50;;;;;;5099303;28;19965;-58
2022/06/27 08:35:39;;;;;;;;;;;24.40;55.40;;;;;;5108938;28;19930;-60
2022/06/27 08:38:06;;;;;;;;;;;24.40;55.40;;;;;;5097454;28;20022;-60
2022/06/27 08:40:32;;;;;;;;;;;24.40;55.40;;;;;;5107720;28;19919;-60
2022/06/27 08:43:00;;;;;;;;;;;24.40;55.40;;;;;;5108927;28;20384;-58
2022/06/27 08:45:28;;;;;;;;;;;24.40;55.40;;;;;;5106432;28;19920;-60
2022/06/27 08:47:56;;;;;;;;;;;24.40;55.40;;;;;;5109073;28;19927;-58
2022/06/27 08:50:24;;;;;;;;;;;24.40;55.40;;;;;;5112282;28;19980;-59
2022/06/27 08:52:51;;;;;;;;;;;24.40;55.40;;;;;;5103097;28;19920;-58
2022/06/27 08:55:18;;;;;;;;;;;24.40;55.40;;;;;;5102314;28;20018;-60
2022/06/27 08:57:45;;;;;;;;;;;24.40;55.40;;;;;;5107426;28;19924;-58
2022/06/27 09:00:14;;;;;;;;;;;24.40;55.40;;;;;;5108726;28;19941;-58
2022/06/27 09:02:42;;;;;;;;;;;24.40;55.40;;;;;;5094098;28;19923;-57
2022/06/27 09:05:15;;;;;;;;;;;24.40;55.40;;;;;;5102327;28;20014;-58
2022/06/27 09:07:51;;;;;;;;;;;24.40;55.40;;;;;;5111161;28;19923;-58
2022/06/27 09:10:25;;;;;;;;;;;24.40;55.40;;;;;;5124761;28;19926;-60
2022/06/27 09:12:56;;;;;;;;;;;24.40;55.50;;;;;;5126138;28;20309;-58
2022/06/27 09:15:23;;;;;;;;;;;24.40;55.40;;;;;;5109598;28;19931;-59
2022/06/27 09:18:00;;;;;;;;;;;24.40;55.40;;;;;;5107010;28;19919;-58
2022/06/27 09:20:28;;;;;;;;;;;24.40;55.50;;;;;;5109452;28;19955;-58
2022/06/27 09:22:56;;;;;;;;;;;24.40;55.50;;;;;;5106540;28;19919;-60
2022/06/27 09:25:23;;;;;;;;;;;24.40;55.50;;;;;;5117341;28;20383;-59
2022/06/27 09:27:51;;;;;;;;;;;24.40;55.50;;;;;;5102147;28;19972;-58
2022/06/27 09:30:27;;;;;;;;;;;24.40;55.50;;;;;;5104059;28;19927;-61
2022/06/27 09:32:56;;;;;;;;;;;24.40;55.40;;;;;;5110622;28;19923;-58
2022/06/27 09:35:24;;;;;;;;;;;24.40;55.50;;;;;;5110103;28;19927;-59
2022/06/27 09:37:51;;;;;;;;;;;24.40;55.50;;;;;;5127552;28;19969;-60
2022/06/27 09:40:19;;;;;;;;;;;24.40;56.10;;;;;;5095693;28;19919;-59
2022/06/27 09:42:46;;;;;;;;;;;24.40;55.50;;;;;;5099135;27;19999;-59
2022/06/27 09:45:13;;;;;;;;;;;24.40;55.50;;;;;;5116208;27;20404;-58
2022/06/27 09:47:40;;;;;;;;;;;24.40;55.50;;;;;;5102757;27;19962;-58
2022/06/27 09:50:08;;;;;;;;;;;24.40;55.60;;;;;;5098434;27;19919;-59
2022/06/27 09:52:34;;;;;;;;;;;24.40;55.50;;;;;;5097607;27;20085;-59
2022/06/27 09:55:02;;;;;;;;;;;24.40;55.60;;;;;;5094627;28;19920;-58
2022/06/27 09:57:30;;;;;;;;;;;24.40;55.60;;;;;;5098472;27;19956;-61
2022/06/27 09:59:56;;;;;;;;;;;24.40;55.60;;;;;;5118616;27;19977;-60
2022/06/27 10:02:23;;;;;;;;;;;24.40;55.60;;;;;;5104198;27;19923;-59
2022/06/27 10:04:51;;;;;;;;;;;24.40;55.60;;;;;;5101082;28;19924;-58
2022/06/27 10:07:19;;;;;;;;;;;24.40;55.60;;;;;;5115486;27;19951;-60
2022/06/27 10:09:48;;;;;;;;;;;24.40;55.70;;;;;;5118018;27;20286;-59
2022/06/27 10:12:24;;;;;;;;;;;24.40;55.70;;;;;;5105673;27;19941;-60
2022/06/27 10:15:09;;;;;;;;;;;24.40;55.70;;;;;;5127695;27;20348;-60
2022/06/27 10:17:38;;;;;;;;;;;24.40;55.70;;;;;;5123651;27;19968;-59
2022/06/27 10:20:06;;;;;;;;;;;24.40;55.70;;;;;;5104752;27;19938;-58
2022/06/27 10:22:33;;;;;;;;;;;24.40;55.80;;;;;;5099590;27;19919;-58
2022/06/27 10:25:14;;;;;;;;;;;24.40;55.80;;;;;;5121769;27;19919;-58
2022/06/27 10:27:41;;;;;;;;;;;24.40;55.80;;;;;;5106230;27;19959;-58
2022/06/27 10:30:09;;;;;;;;;;;24.40;55.90;;;;;;5102807;27;19991;-59
2022/06/27 10:32:41;;;;;;;;;;;24.40;55.90;;;;;;5123710;27;19928;-59
2022/06/27 10:35:10;;;;;;;;;;;24.40;55.90;;;;;;5107515;28;19924;-58
2022/06/27 10:37:37;;;;;;;;;;;24.40;55.90;;;;;;5100346;27;20443;-59
2022/06/27 10:40:34;;;;;;;;;;;24.40;55.80;;;;;;5102668;27;20020;-59
2022/06/27 10:43:01;;;;;;;;;;;24.40;55.80;;;;;;5049769;28;20463;-59
2022/06/27 10:45:28;;;;;;;;;;;24.50;55.90;;;;;;5095390;27;19920;-58
2022/06/27 10:47:57;;;;;;;;;;;24.50;55.90;;;;;;5108387;28;19920;-59
2022/06/27 10:50:24;;;;;;;;;;;24.40;55.80;;;;;;5118150;27;19920;-59
2022/06/27 10:52:51;;;;;;;;;;;24.40;55.90;;;;;;5115629;27;19919;-59
2022/06/27 10:55:22;;;;;;;;;;;24.50;56.00;;;;;;5118868;22;19966;-59
2022/06/27 10:57:48;;;;;;;;;;;24.50;56.00;;;;;;5064159;28;20393;-60
2022/06/27 11:00:37;;;;;;;;;;;24.50;56.10;;;;;;5043819;28;19967;-59
2022/06/27 11:03:06;;;;;;;;;;;24.50;56.10;;;;;;5051527;28;19925;-60
2022/06/27 11:05:47;;;;;;;;;;;24.50;56.40;;;;;;5058258;28;20390;-61
2022/06/27 11:08:14;;;;;;;;;;;24.50;56.10;;;;;;5045333;28;19920;-59
2022/06/27 11:10:42;;;;;;;;;;;24.50;56.20;;;;;;5046407;28;19932;-59
2022/06/27 11:13:09;;;;;;;;;;;24.50;56.30;;;;;;5042510;28;19971;-60
2022/06/27 11:15:36;;;;;;;;;;;24.50;57.00;;;;;;5054361;28;19927;-59
2022/06/27 11:18:08;;;;;;;;;;;24.50;56.70;;;;;;5045215;28;19927;-59
2022/06/27 11:20:35;;;;;;;;;;;24.50;56.80;;;;;;5035363;28;19979;-60
2022/06/27 11:23:03;;;;;;;;;;;24.50;56.80;;;;;;5029250;28;20016;-59
2022/06/27 11:25:30;;;;;;;;;;;24.50;56.80;;;;;;5038079;28;19956;-59
2022/06/27 11:27:57;;;;;;;;;;;24.50;56.70;;;;;;5043337;28;20393;-59
2022/06/27 11:33:18;;;;;;;;;;;24.40;56.70;;;;;;5033265;28;19933;-59
2022/06/27 11:35:44;;;;;;;;;;;24.40;56.70;;;;;;5034237;28;19983;-60
2022/06/27 11:38:11;;;;;;;;;;;24.40;56.70;;;;;;5035251;28;19953;-61
2022/06/27 11:40:38;;;;;;;;;;;24.40;56.70;;;;;;5040549;28;20317;-60
2022/06/27 11:43:04;;;;;;;;;;;24.40;56.70;;;;;;5039427;28;19921;-60
2022/06/27 11:45:38;;;;;;;;;;;24.40;56.70;;;;;;5045712;28;20365;-61
2022/06/27 11:48:12;;;;;;;;;;;24.40;56.70;;;;;;5030612;28;19925;-59
2022/06/27 11:50:40;;;;;;;;;;;24.50;56.70;;;;;;5033800;28;20024;-59
2022/06/27 11:53:08;;;;;;;;;;;24.40;56.70;;;;;;5033810;28;19951;-59
2022/06/27 11:55:35;;;;;;;;;;;24.40;56.70;;;;;;5041957;28;19925;-59
2022/06/27 11:58:02;;;;;;;;;;;24.40;56.70;;;;;;5049989;28;19974;-59
2022/06/27 12:00:29;;;;;;;;;;;24.50;56.90;;;;;;5043257;28;20282;-60
2022/06/27 12:03:01;;;;;;;;;;;24.50;57.00;;;;;;5043683;28;19968;-59
2022/06/27 12:05:28;;;;;;;;;;;24.40;56.80;;;;;;5043886;28;19924;-60
2022/06/27 12:07:56;;;;;;;;;;;24.40;56.90;;;;;;5056806;28;19983;-59
2022/06/27 12:11:16;;;;;;;;;;;24.50;57.00;;;;;;5060142;28;20293;-60
2022/06/27 12:13:34;;;;;;;;;;;24.40;56.90;;;;;;5067414;22;20338;-60
2022/06/27 12:16:02;;;;;;;;;;;24.40;56.90;;;;;;5044935;28;19925;-59
2022/06/27 12:18:32;;;;;;;;;;;24.50;57.00;;;;;;5042190;28;19920;-61
2022/06/27 12:20:59;;;;;;;;;;;24.50;57.00;;;;;;5049812;28;19932;-60
2022/06/27 12:23:28;;;;;;;;;;;24.40;56.80;;;;;;5035386;28;20331;-60
2022/06/27 12:25:56;;;;;;;;;;;24.50;56.90;;;;;;5036233;28;20431;-61
2022/06/27 12:28:23;;;;;;;;;;;24.50;56.90;;;;;;5032067;28;19986;-60
2022/06/27 12:30:50;;;;;;;;;;;24.40;56.80;;;;;;5035986;28;19928;-59
2022/06/27 12:33:17;;;;;;;;;;;24.50;56.90;;;;;;5020714;28;19974;-61
2022/06/27 12:35:43;;;;;;;;;;;24.50;56.90;;;;;;5028478;28;20374;-57
2022/06/27 12:38:10;;;;;;;;;;;24.50;56.90;;;;;;5047453;28;19968;-60
2022/06/27 12:40:38;;;;;;;;;;;24.50;56.90;;;;;;5013916;28;19921;-57
2022/06/27 12:43:05;;;;;;;;;;;24.50;56.90;;;;;;5024808;28;20366;-60
2022/06/27 12:45:32;;;;;;;;;;;24.50;56.90;;;;;;5048500;28;19928;-59
2022/06/27 12:47:59;;;;;;;;;;;24.50;57.00;;;;;;5035757;28;19928;-60
2022/06/27 12:50:25;;;;;;;;;;;24.50;57.00;;;;;;5020303;28;19974;-58
2022/06/27 12:52:52;;;;;;;;;;;24.50;56.90;;;;;;5032593;28;19921;-58
2022/06/27 12:55:19;;;;;;;;;;;24.50;57.00;;;;;;5030115;28;19921;-59
2022/06/27 12:57:47;;;;;;;;;;;24.50;56.90;;;;;;5031262;28;20046;-59
2022/06/27 13:00:14;;;;;;;;;;;;;;;;;;5036020;28;19963;-59
2022/06/27 13:02:41;;;;;;;;;;;24.50;56.50;;;;;;5035053;28;19921;-59
2022/06/27 13:05:08;;;;;;;;;;;24.50;57.00;;;;;;5028407;28;20324;-60
2022/06/27 13:07:34;;;;;;;;;;;24.50;57.00;;;;;;5030403;28;19922;-59
2022/06/27 13:10:01;;;;;;;;;;;24.50;57.00;;;;;;5035754;28;20317;-60
2022/06/27 13:12:28;;;;;;;;;;;24.50;57.00;;;;;;5014999;28;20430;-59
2022/06/27 13:14:56;;;;;;;;;;;24.50;57.00;;;;;;5020424;28;19921;-59
2022/06/27 13:17:24;;;;;;;;;;;24.60;57.10;;;;;;5029294;28;20281;-60
2022/06/27 13:19:51;;;;;;;;;;;24.50;57.10;;;;;;5047465;28;19921;-60
2022/06/27 13:22:18;;;;;;;;;;;24.50;57.00;;;;;;5049429;28;20331;-60
2022/06/27 13:24:45;;;;;;;;;;;24.60;57.10;;;;;;5016960;28;19921;-60
2022/06/27 13:27:12;;;;;;;;;;;24.60;57.10;;;;;;5031826;28;19968;-60
2022/06/27 13:29:39;;;;;;;;;;;24.60;57.10;;;;;;5030829;28;19975;-59
2022/06/27 13:32:08;;;;;;;;;;;24.60;57.10;;;;;;5050175;28;19943;-60
2022/06/27 13:34:35;;;;;;;;;;;24.60;57.10;;;;;;5052216;28;19944;-61
2022/06/27 13:37:01;;;;;;;;;;;24.60;57.10;;;;;;5027012;28;19928;-58
2022/06/27 13:39:28;;;;;;;;;;;24.60;57.10;;;;;;5045938;28;19932;-56
2022/06/27 13:41:55;;;;;;;;;;;24.60;57.10;;;;;;5028366;28;19921;-57
2022/06/27 13:44:22;;;;;;;;;;;24.60;57.00;;;;;;5030648;28;19921;-53
2022/06/27 13:46:49;;;;;;;;;;;24.60;57.00;;;;;;5043979;28;20336;-57
2022/06/27 13:49:17;;;;;;;;;;;24.60;57.00;;;;;;5028099;28;19974;-56
2022/06/27 13:51:44;;;;;;;;;;;24.60;57.00;;;;;;5041025;28;19974;-58
2022/06/27 13:54:11;;;;;;;;;;;24.60;57.00;;;;;;5044776;28;20316;-58
2022/06/27 13:56:37;;;;;;;;;;;24.60;57.00;;;;;;5037975;28;20378;-57
2022/06/27 13:59:04;;;;;;;;;;;24.60;57.00;;;;;;5029283;28;20023;-56
2022/06/27 14:01:31;;;;;;;;;;;24.60;57.10;;;;;;5033417;28;19952;-58
2022/06/27 14:03:57;;;;;;;;;;;24.60;57.10;;;;;;5034386;28;20273;-58
2022/06/27 14:09:10;;;;;;;;;;;24.60;57.10;;;;;;5037999;28;19928;-57
2022/06/27 14:11:36;;;;;;;;;;;24.60;57.10;;;;;;5032527;28;19982;-58
2022/06/27 14:14:04;;;;;;;;;;;24.60;57.10;;;;;;5031414;28;19974;-58
2022/06/27 14:16:31;;;;;;;;;;;24.60;57.20;;;;;;5043245;28;19928;-58
2022/06/27 14:18:57;;;;;;;;;;;24.60;57.20;;;;;;5041307;28;19927;-58
2022/06/27 14:21:26;;;;;;;;;;;24.60;57.20;;;;;;5031065;28;20298;-57
2022/06/27 14:23:53;;;;;;;;;;;24.60;57.20;;;;;;5044995;28;19928;-59
2022/06/27 14:26:19;;;;;;;;;;;24.60;57.10;;;;;;5024342;28;19996;-59
2022/06/27 14:28:46;;;;;;;;;;;24.60;57.10;;;;;;5046047;28;19921;-61